Time;durP1;ratioP1;P1;durP2;ratioP2;P2;SDS_P1;SDS_P2;PMS_P1;PMS_P2;Temp;Humidity;BMP_temperature;BMP_pressure;BME280_temperature;BME280_humidity;BME280_pressure;Samples;Min_cycle;Max_cycle;Signal;HPM_P1;HPM_P2
2021/12/17 00:00:32;;;;;;;453.83;433.23;;;8.20;99.90;;;;;;4228469;33;20338;-65
2021/12/17 00:05:54;;;;;;;445.67;425.50;;;8.20;99.90;;;;;;4229096;34;20158;-65
2021/12/17 00:08:22;;;;;;;473.43;451.57;;;8.20;99.90;;;;;;4228424;34;20264;-66
2021/12/17 00:10:52;;;;;;;462.13;441.37;;;8.20;99.90;;;;;;4230189;34;20176;-66
2021/12/17 00:13:21;;;;;;;459.57;438.70;;;8.20;99.90;;;;;;4228169;34;20299;-65
2021/12/17 00:15:48;;;;;;;462.93;441.97;;;8.20;99.90;;;;;;4228672;34;20162;-64
2021/12/17 00:18:22;;;;;;;479.87;457.93;;;8.20;99.90;;;;;;4228434;34;20173;-66
2021/12/17 00:40:14;;;;;;;453.63;433.07;;;8.20;99.90;;;;;;4234703;33;20172;-66
2021/12/17 00:40:33;;;;;;;444.83;424.87;;;8.30;99.90;;;;;;4372919;32;20179;-66
2021/12/17 00:48:44;;;;;;;458.80;437.90;;;8.30;99.90;;;;;;4320816;33;20172;-65
2021/12/17 00:54:07;;;;;;;443.53;423.57;;;8.30;99.90;;;;;;4273323;33;20227;-64
2021/12/17 00:56:35;;;;;;;452.87;432.70;;;8.30;99.90;;;;;;4273295;33;20169;-65
2021/12/17 00:59:03;;;;;;;463.83;443.00;;;8.30;99.90;;;;;;4272302;33;20197;-65
2021/12/17 01:01:31;;;;;;;432.90;413.27;;;8.30;99.90;;;;;;4272597;33;20701;-65
2021/12/17 01:03:58;;;;;;;455.70;435.00;;;8.40;99.90;;;;;;4272922;33;20210;-66
2021/12/17 01:06:25;;;;;;;464.93;443.80;;;8.40;99.90;;;;;;4262847;33;20214;-65
2021/12/17 01:08:53;;;;;;;442.97;423.03;;;8.40;99.90;;;;;;4272028;33;20659;-64
2021/12/17 01:11:21;;;;;;;456.57;435.57;;;8.40;99.90;;;;;;4274138;33;20185;-67
2021/12/17 01:13:49;;;;;;;448.73;428.37;;;8.40;99.90;;;;;;4273401;33;20182;-65
2021/12/17 01:16:17;;;;;;;435.30;415.73;;;8.40;99.90;;;;;;4272835;33;20173;-65
2021/12/17 01:18:55;;;;;;;477.57;455.73;;;8.40;99.90;;;;;;4276140;33;20238;-65
2021/12/17 01:21:31;;;;;;;440.03;420.20;;;8.40;99.90;;;;;;4312867;33;20162;-67
2021/12/17 01:24:04;;;;;;;436.53;416.93;;;8.40;99.90;;;;;;4317168;33;20256;-65
2021/12/17 01:43:32;;;;;;;434.10;414.47;;;8.40;99.90;;;;;;4323890;33;20575;-65
2021/12/17 01:46:01;;;;;;;444.60;424.30;;;8.40;99.90;;;;;;4330300;33;20230;-65
2021/12/17 01:48:37;;;;;;;461.07;439.73;;;8.40;99.90;;;;;;4329085;33;20537;-64
2021/12/17 01:56:53;;;;;;;444.23;423.47;;;8.40;99.90;;;;;;4331393;33;20625;-64
2021/12/17 01:59:25;;;;;;;456.33;434.73;;;8.20;99.90;;;;;;4322493;33;20167;-66
2021/12/17 02:01:58;;;;;;;469.73;446.97;;;8.20;99.90;;;;;;4319283;33;20174;-64
2021/12/17 02:04:25;;;;;;;464.50;442.67;;;8.20;99.90;;;;;;4321826;33;20177;-65
2021/12/17 02:06:52;;;;;;;468.17;445.97;;;8.20;99.90;;;;;;4321724;33;20184;-67
2021/12/17 02:09:57;;;;;;;467.80;445.73;;;8.30;99.90;;;;;;4326094;33;20165;-66
2021/12/17 02:12:56;;;;;;;436.97;416.40;;;8.30;99.90;;;;;;4318350;33;20220;-65
2021/12/17 02:30:16;;;;;;;457.57;436.07;;;8.50;99.90;;;;;;4337844;33;20207;-65
2021/12/17 02:32:45;;;;;;;460.47;438.77;;;8.50;99.90;;;;;;4344581;33;20228;-65
2021/12/17 02:35:29;;;;;;;446.57;425.17;;;8.50;99.90;;;;;;4337798;33;20145;-64
2021/12/17 02:37:57;;;;;;;430.90;410.40;;;8.60;99.90;;;;;;4342203;33;20148;-65
2021/12/17 02:46:02;;;;;;;451.90;429.90;;;8.60;99.90;;;;;;4344523;33;20720;-66
2021/12/17 02:48:33;;;;;;;447.80;426.07;;;8.60;99.90;;;;;;4343964;33;20158;-65
2021/12/17 02:51:01;;;;;;;447.33;425.53;;;8.50;99.90;;;;;;4344144;33;20159;-64
2021/12/17 02:53:30;;;;;;;457.40;434.57;;;8.60;99.90;;;;;;4344355;33;20162;-63
2021/12/17 02:55:59;;;;;;;451.03;427.87;;;8.50;99.90;;;;;;4343809;33;20182;-66
2021/12/17 02:58:29;;;;;;;479.27;454.87;;;8.40;99.90;;;;;;4343751;33;20165;-66
2021/12/17 03:00:57;;;;;;;481.57;457.40;;;8.40;99.90;;;;;;4363308;32;20439;-66
2021/12/17 03:03:27;;;;;;;463.13;440.10;;;8.40;99.90;;;;;;4376490;32;20171;-65
2021/12/17 03:05:57;;;;;;;461.80;439.13;;;8.40;99.90;;;;;;4377721;32;20165;-65
2021/12/17 03:08:25;;;;;;;468.47;445.37;;;8.50;99.90;;;;;;4385592;32;20147;-65
2021/12/17 03:11:01;;;;;;;466.67;444.00;;;8.40;99.90;;;;;;4377427;32;20191;-65
2021/12/17 03:13:30;;;;;;;464.80;441.87;;;8.50;99.90;;;;;;4383938;32;20176;-66
2021/12/17 03:16:02;;;;;;;470.27;447.23;;;8.50;99.90;;;;;;4390952;32;20144;-67
2021/12/17 03:24:05;;;;;;;461.30;438.93;;;8.50;99.90;;;;;;4392343;32;20167;-65
2021/12/17 03:26:34;;;;;;;466.23;442.70;;;8.60;99.90;;;;;;4378599;32;20168;-66
2021/12/17 03:29:03;;;;;;;482.27;457.33;;;8.50;99.90;;;;;;4375475;32;20443;-65
2021/12/17 03:31:31;;;;;;;475.93;451.47;;;8.40;99.90;;;;;;4375779;32;20140;-66
2021/12/17 03:34:10;;;;;;;489.63;464.43;;;8.30;99.90;;;;;;4376790;32;20163;-65
2021/12/17 03:36:37;;;;;;;494.30;468.83;;;8.20;99.90;;;;;;4375849;32;20174;-66
2021/12/17 03:39:04;;;;;;;519.53;492.53;;;8.20;99.90;;;;;;4375593;32;20142;-67
2021/12/17 03:41:37;;;;;;;498.93;473.37;;;8.30;99.90;;;;;;4377944;32;20650;-66
2021/12/17 03:44:04;;;;;;;511.00;483.00;;;8.30;99.90;;;;;;4390806;32;20207;-67
2021/12/17 03:46:31;;;;;;;543.97;515.00;;;8.30;99.90;;;;;;4387985;32;20209;-65
2021/12/17 03:48:59;;;;;;;528.40;499.70;;;8.30;99.90;;;;;;4387924;32;20186;-65
2021/12/17 03:51:27;;;;;;;514.77;486.87;;;8.30;99.90;;;;;;4375580;32;20131;-66
2021/12/17 03:53:58;;;;;;;539.60;510.33;;;8.30;99.90;;;;;;4378583;32;20485;-66
2021/12/17 03:56:27;;;;;;;547.07;516.50;;;8.20;99.90;;;;;;4381539;32;20550;-66
2021/12/17 03:58:57;;;;;;;550.50;519.70;;;8.20;99.90;;;;;;4381534;32;20144;-65
2021/12/17 04:01:27;;;;;;;557.20;525.13;;;8.20;99.90;;;;;;4378525;32;20144;-67
2021/12/17 04:03:54;;;;;;;546.00;516.63;;;8.20;99.90;;;;;;4380634;32;20220;-66
2021/12/17 04:06:21;;;;;;;553.90;522.90;;;8.20;99.90;;;;;;4390481;32;20464;-64
2021/12/17 04:08:48;;;;;;;539.73;509.93;;;8.20;99.90;;;;;;4378743;32;20471;-66
2021/12/17 04:11:18;;;;;;;543.40;512.97;;;8.10;99.90;;;;;;4383786;32;20166;-66
2021/12/17 04:13:53;;;;;;;537.23;507.13;;;8.10;99.90;;;;;;4388448;32;20148;-68
2021/12/17 04:16:25;;;;;;;523.93;495.77;;;8.10;99.90;;;;;;4390374;32;20236;-66
2021/12/17 04:18:52;;;;;;;524.27;494.80;;;8.00;99.90;;;;;;4388189;32;20146;-65
2021/12/17 04:21:19;;;;;;;508.63;479.73;;;8.00;99.90;;;;;;4378503;32;20153;-65
2021/12/17 04:23:48;;;;;;;494.57;467.20;;;8.10;99.90;;;;;;4389705;32;20164;-66
2021/12/17 04:26:17;;;;;;;493.93;467.17;;;8.10;99.90;;;;;;4384690;32;20148;-64
2021/12/17 04:28:46;;;;;;;493.27;466.67;;;8.10;99.90;;;;;;4375097;32;20142;-65
2021/12/17 04:31:14;;;;;;;516.57;487.40;;;8.20;99.90;;;;;;4382539;32;20597;-67
2021/12/17 04:33:45;;;;;;;514.97;485.37;;;8.20;99.90;;;;;;4387131;32;20146;-65
2021/12/17 04:36:19;;;;;;;538.77;508.70;;;8.10;99.90;;;;;;4386474;32;20151;-66
2021/12/17 04:38:46;;;;;;;538.97;509.10;;;8.20;99.90;;;;;;4383984;32;20152;-67
2021/12/17 04:41:41;;;;;;;559.73;528.93;;;8.20;99.90;;;;;;4377508;32;20165;-64
2021/12/17 04:44:16;;;;;;;551.87;521.97;;;8.30;99.90;;;;;;4385541;32;20153;-66
2021/12/17 04:46:48;;;;;;;545.40;515.87;;;8.30;99.90;;;;;;4383869;32;20195;-69
2021/12/17 04:57:30;;;;;;;538.10;511.93;;;8.30;99.90;;;;;;4354694;33;20165;-67
2021/12/17 04:59:59;;;;;;;494.50;471.33;;;8.20;99.90;;;;;;4357065;33;20218;-65
2021/12/17 05:02:28;;;;;;;511.60;487.43;;;8.20;99.90;;;;;;4345268;33;20597;-67
2021/12/17 05:04:56;;;;;;;507.73;483.30;;;8.10;99.90;;;;;;4357315;33;20510;-65
2021/12/17 05:07:25;;;;;;;529.47;503.40;;;8.00;99.90;;;;;;4350370;32;20171;-64
2021/12/17 05:10:00;;;;;;;544.40;517.90;;;8.10;99.90;;;;;;4351778;33;20536;-64
2021/12/17 05:18:17;;;;;;;517.10;492.60;;;8.10;99.90;;;;;;4349966;32;20488;-66
2021/12/17 05:20:48;;;;;;;494.80;471.93;;;8.10;99.90;;;;;;4352312;33;20164;-67
2021/12/17 05:23:16;;;;;;;481.70;459.20;;;8.00;99.90;;;;;;4360593;32;20231;-65
2021/12/17 05:25:43;;;;;;;478.30;456.40;;;8.00;99.90;;;;;;4352098;33;20145;-65
2021/12/17 05:28:13;;;;;;;504.10;480.47;;;7.90;99.90;;;;;;4351668;33;20152;-65
2021/12/17 05:30:45;;;;;;;512.83;488.63;;;7.90;99.90;;;;;;4357869;33;20160;-66
2021/12/17 05:33:13;;;;;;;498.80;475.73;;;8.00;99.90;;;;;;4360527;33;20721;-67
2021/12/17 05:35:41;;;;;;;507.67;483.97;;;8.00;99.90;;;;;;4382624;32;20171;-66
2021/12/17 05:38:10;;;;;;;499.90;476.37;;;8.00;99.90;;;;;;4389848;32;20212;-65
2021/12/17 05:40:38;;;;;;;511.87;487.73;;;8.00;99.90;;;;;;4393662;32;20131;-65
2021/12/17 05:43:09;;;;;;;535.40;509.77;;;8.00;99.90;;;;;;4388117;32;20140;-65
2021/12/17 05:45:48;;;;;;;516.47;492.03;;;8.10;99.90;;;;;;4386318;32;20138;-65
2021/12/17 05:48:17;;;;;;;512.50;488.53;;;8.10;99.90;;;;;;4380381;32;20197;-67
2021/12/17 05:50:47;;;;;;;523.57;498.63;;;8.10;99.90;;;;;;4390713;32;20156;-65
2021/12/17 05:53:16;;;;;;;511.13;487.17;;;8.20;99.90;;;;;;4389755;32;20166;-65
2021/12/17 05:55:44;;;;;;;495.63;472.70;;;8.20;99.90;;;;;;4383432;32;20185;-65
2021/12/17 05:58:11;;;;;;;476.10;454.20;;;8.20;99.90;;;;;;4379935;32;20485;-66
2021/12/17 06:00:40;;;;;;;468.47;446.83;;;8.20;99.90;;;;;;4380404;32;20152;-64
2021/12/17 06:03:07;;;;;;;449.07;428.90;;;8.20;99.90;;;;;;4380890;32;20159;-64
2021/12/17 06:05:34;;;;;;;449.53;429.20;;;8.20;99.90;;;;;;4377025;32;20477;-67
2021/12/17 06:08:01;;;;;;;449.43;428.77;;;8.20;99.90;;;;;;4386587;32;20456;-66
2021/12/17 06:10:32;;;;;;;457.40;436.80;;;8.20;99.90;;;;;;4377025;32;20144;-64
2021/12/17 06:12:59;;;;;;;440.93;420.90;;;8.20;99.90;;;;;;4382865;32;20150;-67
2021/12/17 06:15:28;;;;;;;445.43;425.33;;;8.20;99.90;;;;;;4384084;32;20170;-66
2021/12/17 06:17:55;;;;;;;451.23;430.43;;;8.20;99.90;;;;;;4381778;32;20545;-65
2021/12/17 06:20:24;;;;;;;470.70;449.67;;;8.20;99.90;;;;;;4386216;32;20223;-67
2021/12/17 06:22:52;;;;;;;452.33;431.93;;;8.10;99.90;;;;;;4379213;32;20462;-66
2021/12/17 06:25:19;;;;;;;456.37;435.80;;;8.10;99.90;;;;;;4390078;32;20250;-66
2021/12/17 06:27:47;;;;;;;433.13;413.73;;;8.10;99.90;;;;;;4384164;32;20219;-66
2021/12/17 06:30:17;;;;;;;443.60;423.63;;;8.10;99.90;;;;;;4389535;32;20164;-67
2021/12/17 06:32:44;;;;;;;439.53;419.77;;;8.10;99.90;;;;;;4384494;32;20148;-66
2021/12/17 06:35:11;;;;;;;444.20;423.97;;;8.00;99.90;;;;;;4387542;32;20158;-67
2021/12/17 06:37:40;;;;;;;466.60;445.03;;;8.00;99.90;;;;;;4388973;32;20934;-66
2021/12/17 06:40:09;;;;;;;463.00;441.80;;;8.00;99.90;;;;;;4384987;32;20148;-67
2021/12/17 06:42:36;;;;;;;490.10;467.53;;;8.10;99.90;;;;;;4388239;32;20664;-67
2021/12/17 06:45:09;;;;;;;466.83;445.37;;;8.10;99.90;;;;;;4387146;32;20234;-65
2021/12/17 06:47:38;;;;;;;466.27;444.53;;;8.10;99.90;;;;;;4385828;32;20152;-65
2021/12/17 06:56:22;;;;;;;446.33;425.90;;;8.10;99.90;;;;;;4383804;32;20219;-67
2021/12/17 06:58:57;;;;;;;461.63;440.80;;;8.10;99.90;;;;;;4383235;32;20672;-66
2021/12/17 07:07:19;;;;;;;460.10;439.23;;;8.10;99.90;;;;;;4337140;33;20223;-64
2021/12/17 07:18:22;;;;;;;475.70;453.90;;;8.10;99.90;;;;;;4337599;33;20173;-67
2021/12/17 07:23:53;;;;;;;479.90;457.80;;;8.10;99.90;;;;;;4302810;33;20188;-67
2021/12/17 07:35:01;;;;;;;517.53;493.40;;;8.10;99.90;;;;;;4261449;33;20151;-67
2021/12/17 07:40:12;;;;;;;475.23;453.17;;;8.20;99.90;;;;;;4263109;33;20231;-67
2021/12/17 07:42:39;;;;;;;462.70;441.67;;;8.10;99.90;;;;;;4291228;33;20178;-66
2021/12/17 07:45:07;;;;;;;466.07;444.80;;;8.10;99.90;;;;;;4288329;33;20188;-65
2021/12/17 07:47:34;;;;;;;477.53;455.67;;;8.10;99.90;;;;;;4287314;33;20519;-66
2021/12/17 07:50:02;;;;;;;468.20;446.90;;;8.10;99.90;;;;;;4284370;33;20232;-65
2021/12/17 07:52:29;;;;;;;503.13;479.37;;;8.00;99.90;;;;;;4291380;33;21194;-65
2021/12/17 07:54:55;;;;;;;474.73;452.87;;;8.10;99.90;;;;;;4290958;33;20236;-65
2021/12/17 07:57:22;;;;;;;488.20;464.90;;;8.10;99.90;;;;;;4285628;33;20187;-65
2021/12/17 07:59:50;;;;;;;506.97;483.00;;;8.10;99.90;;;;;;4296452;33;20230;-66
2021/12/17 08:02:17;;;;;;;509.73;485.90;;;8.10;99.90;;;;;;4314207;33;20163;-67
2021/12/17 08:04:44;;;;;;;506.23;482.53;;;8.20;99.90;;;;;;4319229;33;20587;-67
2021/12/17 08:07:12;;;;;;;510.87;486.80;;;8.20;99.90;;;;;;4334064;33;20183;-64
2021/12/17 08:09:40;;;;;;;522.47;497.50;;;8.20;99.90;;;;;;4363614;32;20239;-65
2021/12/17 08:12:10;;;;;;;529.83;504.63;;;8.20;99.90;;;;;;4394980;32;20565;-66
2021/12/17 08:14:37;;;;;;;514.70;490.63;;;8.30;99.90;;;;;;4391702;32;20486;-66
2021/12/17 08:17:16;;;;;;;491.93;468.60;;;8.20;99.90;;;;;;4407066;32;20175;-66
2021/12/17 08:25:15;;;;;;;463.67;442.63;;;8.40;99.90;;;;;;4387090;32;20201;-66
2021/12/17 08:27:50;;;;;;;465.50;444.43;;;8.30;99.90;;;;;;4381992;32;20211;-66
2021/12/17 08:30:28;;;;;;;450.70;430.37;;;8.50;99.90;;;;;;4380495;32;20175;-65
2021/12/17 08:32:56;;;;;;;454.80;434.43;;;8.40;99.90;;;;;;4378368;32;20170;-67
2021/12/17 08:35:23;;;;;;;466.07;445.07;;;8.30;99.90;;;;;;4384057;32;20175;-67
2021/12/17 08:37:53;;;;;;;471.87;450.57;;;8.30;99.90;;;;;;4385285;32;20188;-65
2021/12/17 08:40:20;;;;;;;467.67;446.10;;;8.30;99.90;;;;;;4384870;32;20227;-65
2021/12/17 08:42:47;;;;;;;462.47;441.33;;;8.40;99.90;;;;;;4379872;32;20159;-64
2021/12/17 08:45:14;;;;;;;448.63;428.30;;;8.40;99.90;;;;;;4382414;32;20140;-66
2021/12/17 08:47:43;;;;;;;466.27;445.43;;;8.40;99.90;;;;;;4389881;32;20213;-65
2021/12/17 08:50:12;;;;;;;481.17;459.03;;;8.40;99.90;;;;;;4386205;32;20202;-66
2021/12/17 08:52:39;;;;;;;479.27;457.23;;;8.50;99.90;;;;;;4392939;32;20575;-65
2021/12/17 08:55:10;;;;;;;479.00;457.43;;;8.60;99.90;;;;;;4382804;32;20147;-65
2021/12/17 08:57:37;;;;;;;478.10;456.73;;;8.60;99.90;;;;;;4390207;32;20167;-65
2021/12/17 09:00:06;;;;;;;470.07;448.93;;;8.60;99.90;;;;;;4387886;32;20203;-65
2021/12/17 09:02:35;;;;;;;453.97;433.63;;;8.60;99.90;;;;;;4380910;32;20142;-66
2021/12/17 09:05:02;;;;;;;464.77;443.77;;;8.60;99.90;;;;;;4387599;32;20603;-64
2021/12/17 09:07:29;;;;;;;456.23;435.60;;;8.70;99.90;;;;;;4388076;32;20167;-66
2021/12/17 09:09:56;;;;;;;484.23;462.23;;;8.60;99.90;;;;;;4377867;32;20235;-66
2021/12/17 09:12:25;;;;;;;457.60;436.97;;;8.70;99.90;;;;;;4388783;32;20583;-65
2021/12/17 09:14:52;;;;;;;474.20;452.80;;;8.70;99.90;;;;;;4381738;32;20195;-64
2021/12/17 09:17:21;;;;;;;438.57;418.93;;;8.70;99.90;;;;;;4392674;32;20166;-65
2021/12/17 09:19:48;;;;;;;453.57;433.50;;;8.70;99.90;;;;;;4386171;32;20246;-64
2021/12/17 09:22:15;;;;;;;443.27;423.37;;;8.70;99.90;;;;;;4385877;32;20186;-66
2021/12/17 09:24:42;;;;;;;453.67;433.53;;;8.70;99.90;;;;;;4397216;32;20253;-64
2021/12/17 09:27:09;;;;;;;440.37;420.53;;;8.70;99.90;;;;;;4396739;32;20159;-65
2021/12/17 09:29:37;;;;;;;461.13;440.27;;;8.60;99.90;;;;;;4394599;32;20172;-64
2021/12/17 09:32:04;;;;;;;473.97;452.87;;;8.60;99.90;;;;;;4387715;32;20200;-64
2021/12/17 09:34:31;;;;;;;445.23;425.03;;;8.60;99.90;;;;;;4399962;32;20188;-66
2021/12/17 09:36:58;;;;;;;457.27;436.83;;;8.70;99.90;;;;;;4400265;32;20576;-66
2021/12/17 09:39:25;;;;;;;468.50;447.70;;;8.70;99.90;;;;;;4390188;32;20168;-65
2021/12/17 09:41:53;;;;;;;436.03;416.67;;;8.70;99.90;;;;;;4390432;32;20168;-65
2021/12/17 09:44:20;;;;;;;442.57;422.83;;;8.60;99.90;;;;;;4393231;32;20208;-66
2021/12/17 09:46:49;;;;;;;449.57;429.57;;;8.60;99.90;;;;;;4382162;32;20144;-64
2021/12/17 09:49:17;;;;;;;449.57;429.80;;;8.60;99.90;;;;;;4401008;32;20208;-65
2021/12/17 09:51:44;;;;;;;448.77;429.10;;;8.70;99.90;;;;;;4395616;32;20181;-65
2021/12/17 09:54:12;;;;;;;444.30;424.63;;;8.70;99.90;;;;;;4397336;32;20144;-66
2021/12/17 09:56:39;;;;;;;440.60;420.93;;;8.80;99.90;;;;;;4390725;32;20171;-66
2021/12/17 09:59:06;;;;;;;436.63;417.60;;;8.80;99.90;;;;;;4388733;32;20645;-65
2021/12/17 10:01:37;;;;;;;468.10;447.20;;;8.80;99.90;;;;;;4392388;32;20146;-66
2021/12/17 10:04:17;;;;;;;453.93;434.37;;;8.80;99.90;;;;;;4391222;32;20149;-65
2021/12/17 10:06:44;;;;;;;436.60;417.43;;;8.80;99.90;;;;;;4377789;32;20521;-66
2021/12/17 10:09:11;;;;;;;430.83;412.17;;;8.70;99.90;;;;;;4392447;32;20573;-65
2021/12/17 10:11:39;;;;;;;445.03;425.63;;;8.80;99.90;;;;;;4396590;32;20573;-65
2021/12/17 10:14:18;;;;;;;458.73;438.60;;;8.90;99.90;;;;;;4400124;32;20143;-66
2021/12/17 10:16:46;;;;;;;442.00;422.83;;;8.70;99.90;;;;;;4388292;32;20151;-64
2021/12/17 10:19:12;;;;;;;434.30;415.47;;;8.70;99.90;;;;;;4398418;32;20167;-66
2021/12/17 10:21:47;;;;;;;430.23;411.60;;;8.70;99.90;;;;;;4387992;32;20224;-65
2021/12/17 10:24:24;;;;;;;435.90;417.07;;;8.80;99.90;;;;;;4381141;32;20187;-65
2021/12/17 10:26:51;;;;;;;441.73;422.43;;;8.80;99.90;;;;;;4379363;32;20161;-65
2021/12/17 10:29:21;;;;;;;435.33;416.37;;;8.90;99.90;;;;;;4391720;32;20170;-66
2021/12/17 10:31:57;;;;;;;428.23;409.90;;;8.90;99.90;;;;;;4388698;32;20145;-65
2021/12/17 10:34:25;;;;;;;434.67;416.33;;;8.80;99.90;;;;;;4388486;32;20198;-66
2021/12/17 10:36:53;;;;;;;442.80;423.77;;;8.70;99.90;;;;;;4389710;32;20161;-64
2021/12/17 10:39:25;;;;;;;424.53;406.13;;;8.70;99.90;;;;;;4383611;32;20143;-65
2021/12/17 10:41:52;;;;;;;424.07;405.80;;;8.70;99.90;;;;;;4388918;32;20210;-65
2021/12/17 10:44:20;;;;;;;445.87;426.57;;;8.80;99.90;;;;;;4386457;32;20159;-66
2021/12/17 10:47:06;;;;;;;437.57;418.87;;;8.80;99.90;;;;;;4379062;32;20219;-65
2021/12/17 10:49:33;;;;;;;429.13;411.00;;;8.90;99.90;;;;;;4375194;32;20231;-66
2021/12/17 10:52:14;;;;;;;434.00;414.90;;;8.90;99.90;;;;;;4376926;32;20171;-64
2021/12/17 10:54:41;;;;;;;430.20;411.77;;;8.90;99.90;;;;;;4390530;32;20171;-64
2021/12/17 10:57:09;;;;;;;414.73;397.13;;;8.90;99.90;;;;;;4391838;32;20505;-65
2021/12/17 10:59:37;;;;;;;418.17;400.27;;;8.90;99.90;;;;;;4384001;32;20150;-65
2021/12/17 11:02:11;;;;;;;434.97;416.03;;;8.80;99.90;;;;;;4379367;32;20196;-64
2021/12/17 11:04:40;;;;;;;421.00;402.80;;;8.90;99.90;;;;;;4387224;32;20209;-65
2021/12/17 11:07:12;;;;;;;422.10;404.10;;;8.90;99.90;;;;;;4390314;32;20172;-64
2021/12/17 11:09:46;;;;;;;426.87;408.47;;;8.90;99.90;;;;;;4387379;32;20147;-65
2021/12/17 11:12:28;;;;;;;417.50;399.33;;;8.80;99.90;;;;;;4391764;32;20161;-64
2021/12/17 11:14:57;;;;;;;409.23;391.73;;;8.80;99.90;;;;;;4375917;32;20568;-64
2021/12/17 11:17:24;;;;;;;428.93;410.37;;;8.80;99.90;;;;;;4382180;32;20292;-64
2021/12/17 11:19:55;;;;;;;432.70;414.10;;;8.80;99.90;;;;;;4390956;32;20182;-63
2021/12/17 11:22:26;;;;;;;443.63;424.20;;;8.80;99.90;;;;;;4390417;32;20218;-64
2021/12/17 11:24:53;;;;;;;436.10;417.03;;;8.80;99.90;;;;;;4370650;32;20148;-64
2021/12/17 11:27:21;;;;;;;431.00;412.43;;;8.80;99.90;;;;;;4366742;32;20161;-64
2021/12/17 11:29:48;;;;;;;451.73;431.83;;;8.80;99.90;;;;;;4377115;32;20595;-64
2021/12/17 11:32:15;;;;;;;425.50;407.23;;;8.80;99.90;;;;;;4377277;32;20645;-64
2021/12/17 11:34:43;;;;;;;414.53;396.60;;;8.80;99.90;;;;;;4375752;32;20204;-65
2021/12/17 11:37:11;;;;;;;447.73;428.47;;;8.80;99.90;;;;;;4375223;32;20152;-63
2021/12/17 11:39:48;;;;;;;427.80;409.10;;;8.80;99.90;;;;;;4375569;32;20170;-64
2021/12/17 11:42:29;;;;;;;418.87;400.73;;;8.80;99.90;;;;;;4375601;32;20269;-63
2021/12/17 11:47:43;;;;;;;440.40;421.07;;;8.80;99.90;;;;;;4376206;32;20171;-65
2021/12/17 11:50:12;;;;;;;421.40;403.20;;;8.90;99.90;;;;;;4375275;32;20149;-64
2021/12/17 11:52:44;;;;;;;416.57;398.80;;;8.90;99.90;;;;;;4375315;32;20486;-65
2021/12/17 11:55:34;;;;;;;423.27;405.13;;;8.80;99.90;;;;;;4370341;32;20167;-65
2021/12/17 11:58:02;;;;;;;428.27;409.97;;;8.80;99.90;;;;;;4370444;32;20604;-63
2021/12/17 12:00:32;;;;;;;424.20;406.17;;;8.80;99.90;;;;;;4369325;32;20154;-64
2021/12/17 12:03:19;;;;;;;424.13;405.90;;;8.80;99.90;;;;;;4376374;32;20170;-64
2021/12/17 12:05:47;;;;;;;410.90;393.50;;;8.80;99.90;;;;;;4372400;32;20184;-65
2021/12/17 12:08:31;;;;;;;424.57;406.53;;;8.80;99.90;;;;;;4376397;32;20144;-65
2021/12/17 12:11:14;;;;;;;401.30;384.43;;;8.80;99.90;;;;;;4363336;32;20226;-64
2021/12/17 12:13:42;;;;;;;419.67;402.13;;;8.90;99.90;;;;;;4370879;32;20178;-67
2021/12/17 12:16:11;;;;;;;406.67;389.57;;;8.90;99.90;;;;;;4367829;32;20349;-64
2021/12/17 12:18:47;;;;;;;410.90;393.57;;;8.90;99.90;;;;;;4375962;32;20480;-68
2021/12/17 12:21:17;;;;;;;388.87;372.20;;;8.90;99.90;;;;;;4378151;32;20157;-64
2021/12/17 12:23:53;;;;;;;408.40;391.17;;;9.00;99.90;;;;;;4378972;32;20172;-66
2021/12/17 12:26:23;;;;;;;406.20;389.37;;;8.90;99.90;;;;;;4392994;32;20151;-66
2021/12/17 12:28:53;;;;;;;415.20;397.87;;;8.90;99.90;;;;;;4379008;32;20154;-66
2021/12/17 12:32:14;;;;;;;403.27;386.10;;;8.80;99.90;;;;;;4383422;32;20153;-64
2021/12/17 12:34:43;;;;;;;392.33;376.00;;;8.90;99.90;;;;;;4355742;32;20210;-66
2021/12/17 12:37:18;;;;;;;405.00;388.17;;;8.90;99.90;;;;;;4366303;32;20573;-65
2021/12/17 12:40:14;;;;;;;405.63;388.50;;;9.00;99.90;;;;;;4352544;32;20215;-65
2021/12/17 12:42:52;;;;;;;379.87;364.37;;;9.00;99.90;;;;;;4352161;32;20168;-67
2021/12/17 12:45:19;;;;;;;401.90;385.20;;;9.00;99.90;;;;;;4354301;32;20627;-66
2021/12/17 12:47:50;;;;;;;392.40;375.93;;;9.00;99.90;;;;;;4364778;32;20171;-65
2021/12/17 12:50:20;;;;;;;423.07;405.23;;;9.10;99.90;;;;;;4364787;32;20629;-65
2021/12/17 12:52:51;;;;;;;441.17;422.37;;;9.10;99.90;;;;;;4351556;32;20164;-65
2021/12/17 12:55:21;;;;;;;417.37;399.90;;;9.30;99.90;;;;;;4351739;32;20288;-65
2021/12/17 12:57:52;;;;;;;420.63;403.07;;;9.40;99.90;;;;;;4353579;32;20158;-67
2021/12/17 13:00:22;;;;;;;397.60;381.10;;;9.40;99.90;;;;;;4354206;32;20649;-67
2021/12/17 13:02:52;;;;;;;370.37;355.23;;;9.50;99.90;;;;;;4357175;32;20562;-65
2021/12/17 13:05:19;;;;;;;385.83;369.87;;;9.60;99.90;;;;;;4378909;32;20169;-67
2021/12/17 13:07:48;;;;;;;361.30;346.50;;;9.60;99.90;;;;;;4386450;32;20566;-68
2021/12/17 13:10:17;;;;;;;384.67;368.77;;;9.70;99.90;;;;;;4388075;32;20209;-68
2021/12/17 13:12:53;;;;;;;372.43;357.27;;;9.80;99.90;;;;;;4388166;32;20149;-67
2021/12/17 13:15:38;;;;;;;382.80;366.93;;;9.90;99.90;;;;;;4384224;32;20141;-69
2021/12/17 13:21:03;;;;;;;372.87;357.77;;;10.10;99.90;;;;;;4384535;32;20172;-67
2021/12/17 13:23:34;;;;;;;382.40;366.83;;;10.10;99.90;;;;;;4389363;32;20161;-66
2021/12/17 13:26:04;;;;;;;372.80;357.43;;;10.20;99.90;;;;;;4385014;32;20561;-64
2021/12/17 13:31:39;;;;;;;342.70;328.97;;;10.20;99.90;;;;;;4413606;31;1850878;-67
2021/12/17 13:34:12;;;;;;;353.63;339.33;;;10.20;99.90;;;;;;4455753;32;20700;-64
2021/12/17 13:36:50;;;;;;;353.43;339.13;;;10.30;99.90;;;;;;4459178;32;20222;-65
2021/12/17 13:39:17;;;;;;;348.27;334.23;;;10.20;99.90;;;;;;4459400;32;20570;-65
2021/12/17 13:41:45;;;;;;;341.40;327.70;;;10.20;99.90;;;;;;4457775;32;20159;-65
2021/12/17 13:44:39;;;;;;;333.70;320.33;;;10.10;99.90;;;;;;4461058;32;20248;-65
2021/12/17 13:47:19;;;;;;;328.73;315.60;;;10.10;99.90;;;;;;4456132;32;20205;-63
2021/12/17 13:49:49;;;;;;;333.53;320.03;;;10.00;99.90;;;;;;4458018;32;20159;-67
2021/12/17 13:52:16;;;;;;;337.10;323.60;;;10.00;99.90;;;;;;4457310;32;20189;-66
2021/12/17 13:54:47;;;;;;;335.27;321.80;;;10.00;99.90;;;;;;4451304;32;20162;-65
2021/12/17 13:57:17;;;;;;;356.97;342.63;;;10.00;99.90;;;;;;4456358;32;20240;-65
2021/12/17 13:59:45;;;;;;;340.07;326.53;;;10.00;99.90;;;;;;4451086;32;20146;-65
2021/12/17 14:02:16;;;;;;;308.60;296.27;;;10.00;99.90;;;;;;4450281;32;20193;-66
2021/12/17 14:05:00;;;;;;;344.27;330.47;;;9.90;99.90;;;;;;4461110;32;20595;-66
2021/12/17 14:07:29;;;;;;;340.10;326.50;;;9.90;99.90;;;;;;4450561;32;20145;-65
2021/12/17 14:10:01;;;;;;;352.50;338.27;;;9.90;99.90;;;;;;4451242;32;20207;-64
2021/12/17 14:12:31;;;;;;;349.67;335.57;;;9.80;99.90;;;;;;4453903;32;20163;-65
2021/12/17 14:15:00;;;;;;;341.27;327.30;;;9.80;99.90;;;;;;4451148;32;20237;-70
2021/12/17 14:17:35;;;;;;;375.83;360.60;;;9.80;99.90;;;;;;4449429;32;20191;-66
2021/12/17 14:20:17;;;;;;;357.47;343.13;;;9.80;99.90;;;;;;4455878;32;20168;-66
2021/12/17 14:22:55;;;;;;;341.37;327.67;;;9.80;99.90;;;;;;4451814;32;20501;-65
2021/12/17 14:25:44;;;;;;;351.70;337.43;;;9.80;99.90;;;;;;4458981;32;20158;-65
2021/12/17 14:28:14;;;;;;;342.90;329.17;;;9.80;99.90;;;;;;4458051;32;20201;-65
2021/12/17 14:30:45;;;;;;;354.27;339.70;;;9.80;99.90;;;;;;4448555;32;20542;-65
2021/12/17 14:33:17;;;;;;;349.60;335.57;;;9.80;99.90;;;;;;4453780;32;20182;-68
2021/12/17 14:35:52;;;;;;;356.43;341.90;;;9.80;99.90;;;;;;4463301;32;20189;-68
2021/12/17 14:38:20;;;;;;;344.67;330.73;;;9.70;99.90;;;;;;4451352;32;20167;-67
2021/12/17 14:40:56;;;;;;;351.83;337.57;;;9.70;99.90;;;;;;4450029;32;20151;-68
2021/12/17 14:43:28;;;;;;;353.00;338.20;;;9.70;99.90;;;;;;4437821;32;20148;-65
2021/12/17 14:46:03;;;;;;;364.83;349.93;;;9.70;99.90;;;;;;4439604;32;20163;-65
2021/12/17 14:48:40;;;;;;;362.43;347.30;;;9.70;99.90;;;;;;4445337;32;20191;-65
2021/12/17 15:05:19;;;;;;;361.07;346.07;;;9.60;99.90;;;;;;4373718;32;20144;-64
2021/12/17 15:07:50;;;;;;;361.30;346.50;;;9.70;99.90;;;;;;4370992;32;20156;-69